EGYM

RAF Marham Airport

Marham, United Kingdom
METAR EGYM 160550Z AUTO 20008KT 9999 SCT130/// 04/03 Q1004
Observed Flight Rules
Dec-16 @ 05:50 UTC (an hour ago) Visual Flight Rules
Wind Visibility Clouds
200° at 8 knots 10,000+ meters
  • Scattered at 13,000' AGL
Temperatures Readings
Current 4°C / 39°F
Dewpoint 3°C / 37°F
Humidity 93%
Altimeter 29.65" Hg
Pressure 1004 hPa
Elevation 23
METAR EGYM 160550Z AUTO 20008KT 9999 SCT130/// 04/03 Q1004
Observed Flight Rules
Dec-16 @ 05:50 UTC
(an hour ago)
VFR
Wind Visibility
200° at 8 knots 10,000+ meters
Clouds
  • Scattered at 13,000' AGL
Temperature Dewpoint
4°C / 39°F 3°C / 37°F
Humidity Altimeter Pressure
93% 29.65" Hg 1004 hPa